createdAt,value
2023-03-16T00:00:09.227Z,1014.23
2023-03-16T00:01:09.257Z,1014.22
2023-03-16T00:02:09.326Z,1014.26
2023-03-16T00:03:09.368Z,1014.23
2023-03-16T00:04:09.329Z,1014.23
2023-03-16T00:05:09.332Z,1014.21
2023-03-16T00:06:09.354Z,1014.23
2023-03-16T00:07:09.377Z,1014.14
2023-03-16T00:08:09.399Z,1014.15
2023-03-16T00:09:09.419Z,1014.14
2023-03-16T00:10:09.439Z,1014.16
2023-03-16T00:11:09.461Z,1014.16
2023-03-16T00:12:09.482Z,1014.16
2023-03-16T00:13:09.504Z,1014.15
2023-03-16T00:14:09.525Z,1014.14
2023-03-16T00:15:09.545Z,1014.14
2023-03-16T00:16:09.625Z,1014.11
2023-03-16T00:17:09.590Z,1014.13
2023-03-16T00:18:09.613Z,1014.13
2023-03-16T00:19:09.637Z,1014.11
2023-03-16T00:20:09.671Z,1014.15
2023-03-16T00:21:09.674Z,1014.16
2023-03-16T00:22:09.696Z,1014.13
2023-03-16T00:23:09.718Z,1014.09
2023-03-16T00:24:09.736Z,1014.08
2023-03-16T00:25:09.763Z,1014.04
2023-03-16T00:26:09.787Z,1014.12
2023-03-16T00:27:09.812Z,1014.05
2023-03-16T00:28:09.824Z,1014.08
2023-03-16T00:29:09.841Z,1014.05
2023-03-16T00:30:09.866Z,1014.01
2023-03-16T00:31:09.882Z,1014.01
2023-03-16T00:32:09.914Z,1013.96
2023-03-16T00:33:09.980Z,1013.94
2023-03-16T00:34:09.950Z,1013.91
2023-03-16T00:35:09.978Z,1013.93
2023-03-16T00:36:10.037Z,1013.98
2023-03-16T00:37:10.057Z,1013.89
2023-03-16T00:38:10.025Z,1013.85
2023-03-16T00:39:10.049Z,1013.79
2023-03-16T00:40:10.074Z,1013.79
2023-03-16T00:41:10.093Z,1013.79
2023-03-16T00:42:10.110Z,1013.81
2023-03-16T00:43:10.139Z,1013.82
2023-03-16T00:44:10.160Z,1013.84
2023-03-16T00:45:10.176Z,1013.81
2023-03-16T00:46:10.342Z,1013.79
2023-03-16T00:47:10.225Z,1013.82
2023-03-16T00:48:10.234Z,1013.84
2023-03-16T00:49:10.256Z,1013.83
2023-03-16T00:50:10.282Z,1013.83
2023-03-16T00:51:10.298Z,1013.85
2023-03-16T00:52:10.336Z,1013.86
2023-03-16T00:53:10.341Z,1013.87
2023-03-16T00:54:10.376Z,1013.87
2023-03-16T00:55:10.393Z,1013.89
2023-03-16T00:56:10.400Z,1013.87
2023-03-16T00:57:10.427Z,1013.85
2023-03-16T00:58:10.445Z,1013.88
2023-03-16T00:59:10.471Z,1013.92
2023-03-16T01:00:10.487Z,1013.88
2023-03-16T01:01:10.562Z,1013.85
2023-03-16T01:02:10.543Z,1013.90
2023-03-16T01:03:10.586Z,1013.87
2023-03-16T01:04:10.574Z,1013.90
2023-03-16T01:05:10.604Z,1013.91
2023-03-16T01:06:10.618Z,1013.90
2023-03-16T01:07:10.641Z,1013.89
2023-03-16T01:08:10.680Z,1013.89
2023-03-16T01:09:10.682Z,1013.88
2023-03-16T01:10:10.699Z,1013.94
2023-03-16T01:11:10.742Z,1013.92
2023-03-16T01:12:10.765Z,1013.91
2023-03-16T01:13:10.766Z,1013.97
2023-03-16T01:14:10.784Z,1013.95
2023-03-16T01:15:10.812Z,1013.92
2023-03-16T01:16:10.831Z,1013.91
2023-03-16T01:17:10.972Z,1013.89
2023-03-16T01:18:10.871Z,1013.93
2023-03-16T01:19:10.896Z,1013.91
2023-03-16T01:20:10.925Z,1013.90
2023-03-16T01:21:10.935Z,1013.86
2023-03-16T01:22:10.971Z,1013.84
2023-03-16T01:23:10.977Z,1013.86
2023-03-16T01:24:11.021Z,1013.81
2023-03-16T01:25:11.022Z,1013.77
2023-03-16T01:26:11.041Z,1013.74
2023-03-16T01:27:11.067Z,1013.66
2023-03-16T01:28:11.094Z,1013.66
2023-03-16T01:29:11.107Z,1013.65
2023-03-16T01:30:11.127Z,1013.62
2023-03-16T01:31:11.223Z,1013.64
2023-03-16T01:32:11.167Z,1013.53
2023-03-16T01:33:11.193Z,1013.53
2023-03-16T01:34:11.212Z,1013.47
2023-03-16T01:35:11.234Z,1013.41
2023-03-16T01:36:11.261Z,1013.50
2023-03-16T01:37:11.283Z,1013.44
2023-03-16T01:38:11.297Z,1013.49
2023-03-16T01:39:11.321Z,1013.46
2023-03-16T01:40:11.366Z,1013.43
2023-03-16T01:41:11.367Z,1013.47
2023-03-16T01:42:11.380Z,1013.49
2023-03-16T01:43:11.408Z,1013.44
2023-03-16T01:44:11.425Z,1013.43
2023-03-16T01:45:11.449Z,1013.42
2023-03-16T01:46:11.515Z,1013.44
2023-03-16T01:47:11.491Z,1013.44
2023-03-16T01:48:11.509Z,1013.42
2023-03-16T01:49:11.533Z,1013.40
2023-03-16T01:50:11.554Z,1013.32
2023-03-16T01:51:11.578Z,1013.32
2023-03-16T01:52:11.602Z,1013.34
2023-03-16T01:53:11.621Z,1013.33
2023-03-16T01:54:11.644Z,1013.32
2023-03-16T01:55:11.668Z,1013.33
2023-03-16T01:56:11.707Z,1013.27
2023-03-16T01:57:11.729Z,1013.20
2023-03-16T01:58:11.727Z,1013.21
2023-03-16T01:59:11.749Z,1013.14
2023-03-16T02:00:11.774Z,1013.15
2023-03-16T02:01:11.844Z,1013.15
2023-03-16T02:02:11.812Z,1013.14
2023-03-16T02:03:11.834Z,1013.16
2023-03-16T02:04:11.945Z,1013.13
2023-03-16T02:05:11.878Z,1013.08
2023-03-16T02:06:11.899Z,1013.07
2023-03-16T02:07:11.919Z,1013.02
2023-03-16T02:08:11.940Z,1012.98
2023-03-16T02:09:11.963Z,1013.00
2023-03-16T02:10:11.996Z,1013.00
2023-03-16T02:11:12.010Z,1013.02
2023-03-16T02:12:12.053Z,1013.04
2023-03-16T02:13:12.050Z,1012.98
2023-03-16T02:14:12.109Z,1013.00
2023-03-16T02:15:12.093Z,1012.97
2023-03-16T02:16:12.231Z,1012.94
2023-03-16T02:17:12.136Z,1012.92
2023-03-16T02:18:12.154Z,1012.94
2023-03-16T02:19:12.179Z,1012.93
2023-03-16T02:20:12.198Z,1012.88
2023-03-16T02:21:12.224Z,1012.89
2023-03-16T02:22:12.241Z,1012.90
2023-03-16T02:23:12.315Z,1012.92
2023-03-16T02:24:12.290Z,1012.92
2023-03-16T02:25:12.313Z,1012.93
2023-03-16T02:26:12.357Z,1012.96
2023-03-16T02:27:12.352Z,1012.92
2023-03-16T02:28:12.395Z,1012.92
2023-03-16T02:29:12.395Z,1012.97
2023-03-16T02:30:12.416Z,1012.96
2023-03-16T02:31:12.497Z,1012.92
2023-03-16T02:32:12.457Z,1012.91
2023-03-16T02:33:12.480Z,1012.98
2023-03-16T02:34:12.501Z,1012.91
2023-03-16T02:35:12.525Z,1012.82
2023-03-16T02:36:12.546Z,1012.83
2023-03-16T02:37:12.567Z,1012.85
2023-03-16T02:38:12.585Z,1012.78
2023-03-16T02:39:12.620Z,1012.78
2023-03-16T02:40:12.630Z,1012.73
2023-03-16T02:41:12.660Z,1012.70
2023-03-16T02:42:12.676Z,1012.69
2023-03-16T02:43:12.697Z,1012.70
2023-03-16T02:44:12.738Z,1012.72
2023-03-16T02:45:12.741Z,1012.67
2023-03-16T02:46:12.839Z,1012.72
2023-03-16T02:47:12.780Z,1012.70
2023-03-16T02:48:12.802Z,1012.75
2023-03-16T02:49:12.825Z,1012.80
2023-03-16T02:50:12.847Z,1012.77
2023-03-16T02:51:12.868Z,1012.77
2023-03-16T02:52:12.893Z,1012.73
2023-03-16T02:53:12.908Z,1012.71
2023-03-16T02:54:12.931Z,1012.69
2023-03-16T02:55:12.959Z,1012.67
2023-03-16T02:56:12.974Z,1012.66
2023-03-16T02:57:13.006Z,1012.72
2023-03-16T02:58:13.020Z,1012.65
2023-03-16T02:59:13.043Z,1012.65
2023-03-16T03:00:13.108Z,1012.66
2023-03-16T03:01:13.082Z,1012.64
2023-03-16T03:02:13.105Z,1012.65
2023-03-16T03:03:13.174Z,1012.64
2023-03-16T03:04:13.149Z,1012.60
2023-03-16T03:05:13.166Z,1012.58
2023-03-16T03:06:13.197Z,1012.52
2023-03-16T03:07:13.211Z,1012.55
2023-03-16T03:08:13.231Z,1012.51
2023-03-16T03:09:13.270Z,1012.50
2023-03-16T03:10:13.304Z,1012.48
2023-03-16T03:11:13.298Z,1012.51
2023-03-16T03:12:13.319Z,1012.51
2023-03-16T03:13:13.349Z,1012.52
2023-03-16T03:14:13.362Z,1012.54
2023-03-16T03:15:13.381Z,1012.59
2023-03-16T03:16:13.479Z,1012.55
2023-03-16T03:17:13.514Z,1012.55
2023-03-16T03:18:13.444Z,1012.55
2023-03-16T03:19:13.471Z,1012.57
2023-03-16T03:20:13.503Z,1012.62
2023-03-16T03:21:13.513Z,1012.56
2023-03-16T03:22:13.532Z,1012.52
2023-03-16T03:23:13.557Z,1012.50
2023-03-16T03:24:13.575Z,1012.50
2023-03-16T03:25:13.599Z,1012.47
2023-03-16T03:26:13.620Z,1012.48
2023-03-16T03:27:13.643Z,1012.50
2023-03-16T03:28:13.669Z,1012.47
2023-03-16T03:29:13.688Z,1012.49
2023-03-16T03:30:13.714Z,1012.46
2023-03-16T03:31:13.765Z,1012.42
2023-03-16T03:32:13.777Z,1012.39
2023-03-16T03:33:13.771Z,1012.36
2023-03-16T03:34:13.791Z,1012.38
2023-03-16T03:35:13.816Z,1012.36
2023-03-16T03:36:13.832Z,1012.42
2023-03-16T03:37:13.870Z,1012.38
2023-03-16T03:38:13.879Z,1012.39
2023-03-16T03:39:13.910Z,1012.40
2023-03-16T03:40:13.924Z,1012.37
2023-03-16T03:41:13.946Z,1012.42
2023-03-16T03:42:13.964Z,1012.36
2023-03-16T03:43:13.986Z,1012.39
2023-03-16T03:44:14.019Z,1012.43
2023-03-16T03:45:14.032Z,1012.39
2023-03-16T03:46:14.194Z,1012.41
2023-03-16T03:47:14.089Z,1012.42
2023-03-16T03:48:14.113Z,1012.43
2023-03-16T03:49:14.116Z,1012.38
2023-03-16T03:50:14.219Z,1012.39
2023-03-16T03:51:14.158Z,1012.42
2023-03-16T03:52:14.178Z,1012.39
2023-03-16T03:53:14.211Z,1012.34
2023-03-16T03:54:14.222Z,1012.34
2023-03-16T03:55:14.248Z,1012.35
2023-03-16T03:56:14.263Z,1012.25
2023-03-16T03:57:14.309Z,1012.24
2023-03-16T03:58:14.310Z,1012.26
2023-03-16T03:59:14.332Z,1012.29
2023-03-16T04:00:14.347Z,1012.29
2023-03-16T04:01:14.373Z,1012.31
2023-03-16T04:02:14.599Z,1012.31
2023-03-16T04:03:14.606Z,1012.31
2023-03-16T04:04:14.452Z,1012.34
2023-03-16T04:05:14.464Z,1012.34
2023-03-16T04:06:14.487Z,1012.33
2023-03-16T04:07:14.511Z,1012.34
2023-03-16T04:08:14.520Z,1012.36
2023-03-16T04:09:14.543Z,1012.40
2023-03-16T04:10:14.565Z,1012.39
2023-03-16T04:11:14.591Z,1012.35
2023-03-16T04:12:14.617Z,1012.40
2023-03-16T04:13:14.628Z,1012.37
2023-03-16T04:14:14.649Z,1012.34
2023-03-16T04:15:14.672Z,1012.42
2023-03-16T04:16:14.735Z,1012.38
2023-03-16T04:17:14.710Z,1012.36
2023-03-16T04:18:14.749Z,1012.34
2023-03-16T04:19:14.761Z,1012.31
2023-03-16T04:20:14.836Z,1012.30
2023-03-16T04:21:14.807Z,1012.30
2023-03-16T04:22:14.822Z,1012.27
2023-03-16T04:23:14.844Z,1012.24
2023-03-16T04:24:14.866Z,1012.31
2023-03-16T04:25:14.889Z,1012.25
2023-03-16T04:26:14.941Z,1012.19
2023-03-16T04:27:14.929Z,1012.25
2023-03-16T04:28:14.950Z,1012.25
2023-03-16T04:29:14.972Z,1012.17
2023-03-16T04:30:14.994Z,1012.17
2023-03-16T04:31:15.050Z,1012.17
2023-03-16T04:32:15.036Z,1012.18
2023-03-16T04:33:15.061Z,1012.11
2023-03-16T04:34:15.079Z,1012.13
2023-03-16T04:35:15.099Z,1012.05
2023-03-16T04:36:15.245Z,1012.09
2023-03-16T04:37:15.144Z,1012.05
2023-03-16T04:38:15.175Z,1012.06
2023-03-16T04:39:15.189Z,1012.00
2023-03-16T04:40:15.225Z,1012.04
2023-03-16T04:41:15.232Z,1011.97
2023-03-16T04:42:15.272Z,1012.04
2023-03-16T04:43:15.275Z,1011.94
2023-03-16T04:44:15.298Z,1011.99
2023-03-16T04:45:15.314Z,1011.99
2023-03-16T04:46:15.400Z,1011.96
2023-03-16T04:47:15.358Z,1011.99
2023-03-16T04:48:15.384Z,1011.91
2023-03-16T04:49:15.405Z,1011.94
2023-03-16T04:50:15.444Z,1011.95
2023-03-16T04:51:15.467Z,1011.92
2023-03-16T04:52:15.487Z,1011.90
2023-03-16T04:53:15.486Z,1011.93
2023-03-16T04:54:15.514Z,1011.91
2023-03-16T04:55:15.530Z,1011.89
2023-03-16T04:56:15.553Z,1011.90
2023-03-16T04:57:15.573Z,1011.86
2023-03-16T04:58:15.602Z,1011.88
2023-03-16T04:59:15.620Z,1011.86
2023-03-16T05:00:15.651Z,1011.86
2023-03-16T05:01:15.705Z,1011.87
2023-03-16T05:02:15.685Z,1011.83
2023-03-16T05:03:15.715Z,1011.81
2023-03-16T05:04:19.553Z,1011.82
2023-03-16T05:05:15.868Z,1011.74
2023-03-16T05:06:15.770Z,1011.77
2023-03-16T05:07:15.786Z,1011.78
2023-03-16T05:08:15.839Z,1011.79
2023-03-16T05:09:15.835Z,1011.77
2023-03-16T05:10:15.865Z,1011.76
2023-03-16T05:11:15.880Z,1011.83
2023-03-16T05:12:15.908Z,1011.83
2023-03-16T05:13:15.919Z,1011.88
2023-03-16T05:14:15.956Z,1011.88
2023-03-16T05:15:15.958Z,1011.89
2023-03-16T05:16:16.100Z,1011.86
2023-03-16T05:17:16.016Z,1011.87
2023-03-16T05:18:16.029Z,1011.88
2023-03-16T05:19:16.046Z,1011.83
2023-03-16T05:20:16.603Z,1011.82
2023-03-16T05:21:16.089Z,1011.84
2023-03-16T05:22:16.117Z,1011.84
2023-03-16T05:23:16.131Z,1011.78
2023-03-16T05:24:16.194Z,1011.82
2023-03-16T05:25:16.185Z,1011.84
2023-03-16T05:26:16.200Z,1011.88
2023-03-16T05:27:16.221Z,1011.85
2023-03-16T05:28:16.244Z,1011.88
2023-03-16T05:29:16.267Z,1011.82
2023-03-16T05:30:16.337Z,1011.83
2023-03-16T05:31:16.439Z,1011.87
2023-03-16T05:32:16.343Z,1011.80
2023-03-16T05:33:16.348Z,1011.89
2023-03-16T05:34:16.395Z,1011.88
2023-03-16T05:35:16.390Z,1011.82
2023-03-16T05:36:16.420Z,1011.83
2023-03-16T05:37:16.436Z,1011.84
2023-03-16T05:38:16.464Z,1011.92
2023-03-16T05:39:16.488Z,1011.86
2023-03-16T05:40:16.524Z,1011.89
2023-03-16T05:41:16.535Z,1011.87
2023-03-16T05:42:16.546Z,1011.86
2023-03-16T05:43:16.565Z,1011.81
2023-03-16T05:44:16.595Z,1011.88
2023-03-16T05:45:16.610Z,1011.88
2023-03-16T05:46:18.377Z,1011.85
2023-03-16T05:47:16.659Z,1011.84
2023-03-16T05:48:16.691Z,1011.84
2023-03-16T05:49:16.702Z,1011.87
2023-03-16T05:50:16.725Z,1011.85
2023-03-16T05:51:16.746Z,1011.83
2023-03-16T05:52:16.764Z,1011.86
2023-03-16T05:53:16.787Z,1011.83
2023-03-16T05:54:16.810Z,1011.82
2023-03-16T05:55:16.835Z,1011.81
2023-03-16T05:56:16.876Z,1011.84
2023-03-16T05:57:16.874Z,1011.78
2023-03-16T05:58:16.895Z,1011.81
2023-03-16T05:59:16.914Z,1011.86
2023-03-16T06:00:16.996Z,1011.82
2023-03-16T06:01:16.958Z,1011.80
2023-03-16T06:02:16.980Z,1011.84
2023-03-16T06:03:17.106Z,1011.84
2023-03-16T06:04:17.105Z,1011.85
2023-03-16T06:05:17.045Z,1011.88
2023-03-16T06:06:17.072Z,1011.94
2023-03-16T06:07:17.090Z,1011.91
2023-03-16T06:08:17.112Z,1011.97
2023-03-16T06:09:17.133Z,1011.94
2023-03-16T06:10:17.158Z,1011.93
2023-03-16T06:11:17.181Z,1011.94
2023-03-16T06:12:17.231Z,1011.95
2023-03-16T06:13:17.223Z,1011.99
2023-03-16T06:14:17.245Z,1011.94
2023-03-16T06:15:17.263Z,1012.00
2023-03-16T06:16:17.325Z,1011.95
2023-03-16T06:17:17.306Z,1011.94
2023-03-16T06:18:17.338Z,1011.99
2023-03-16T06:19:17.358Z,1011.92
2023-03-16T06:20:17.373Z,1011.98
2023-03-16T06:21:17.394Z,1011.99
2023-03-16T06:22:17.442Z,1011.96
2023-03-16T06:23:17.438Z,1011.96
2023-03-16T06:24:17.465Z,1012.01
2023-03-16T06:25:17.483Z,1011.92
2023-03-16T06:26:17.508Z,1012.01
2023-03-16T06:27:17.527Z,1011.97
2023-03-16T06:28:17.590Z,1011.96
2023-03-16T06:29:17.572Z,1011.93
2023-03-16T06:30:17.597Z,1011.96
2023-03-16T06:31:17.645Z,1011.95
2023-03-16T06:32:17.640Z,1011.95
2023-03-16T06:33:17.659Z,1011.99
2023-03-16T06:34:17.683Z,1011.97
2023-03-16T06:35:17.726Z,1011.98
2023-03-16T06:36:17.730Z,1011.99
2023-03-16T06:37:17.774Z,1011.97
2023-03-16T06:38:17.829Z,1011.97
2023-03-16T06:39:17.819Z,1011.96
2023-03-16T06:40:17.830Z,1012.02
2023-03-16T06:41:17.836Z,1011.99
2023-03-16T06:42:17.860Z,1011.99
2023-03-16T06:43:17.880Z,1011.95
2023-03-16T06:44:17.926Z,1011.97
2023-03-16T06:45:17.922Z,1011.95
2023-03-16T06:46:18.094Z,1011.96
2023-03-16T06:47:17.979Z,1011.95
2023-03-16T06:48:17.994Z,1011.93
2023-03-16T06:49:18.014Z,1011.92
2023-03-16T06:50:18.039Z,1012.01
2023-03-16T06:51:18.062Z,1011.94
2023-03-16T06:52:18.084Z,1011.96
2023-03-16T06:53:18.104Z,1011.96
2023-03-16T06:54:18.128Z,1012.03
2023-03-16T06:55:18.150Z,1011.94
2023-03-16T06:56:18.172Z,1012.01
2023-03-16T06:57:18.196Z,1012.04
2023-03-16T06:58:18.217Z,1012.07
2023-03-16T06:59:18.237Z,1012.07
2023-03-16T07:00:18.287Z,1012.02
2023-03-16T07:01:18.315Z,1012.02
2023-03-16T07:02:18.307Z,1012.03
2023-03-16T07:03:18.348Z,1012.11
2023-03-16T07:04:18.406Z,1012.04
2023-03-16T07:05:18.375Z,1012.06
2023-03-16T07:06:18.416Z,1012.07
2023-03-16T07:07:18.411Z,1012.08
2023-03-16T07:08:18.441Z,1012.04
2023-03-16T07:09:18.458Z,1012.07
2023-03-16T07:10:18.504Z,1012.06
2023-03-16T07:11:18.501Z,1012.02
2023-03-16T07:12:18.529Z,1012.08
2023-03-16T07:13:18.547Z,1012.05
2023-03-16T07:14:18.573Z,1012.12
2023-03-16T07:15:18.599Z,1012.11
2023-03-16T07:16:18.684Z,1012.12
2023-03-16T07:17:18.637Z,1012.16
2023-03-16T07:18:18.662Z,1012.10
2023-03-16T07:19:18.691Z,1012.12
2023-03-16T07:20:18.712Z,1012.13
2023-03-16T07:21:18.731Z,1012.16
2023-03-16T07:22:18.755Z,1012.14
2023-03-16T07:23:18.781Z,1012.16
2023-03-16T07:24:18.804Z,1012.08
2023-03-16T07:25:18.820Z,1012.08
2023-03-16T07:26:18.845Z,1012.04
2023-03-16T07:27:18.866Z,1012.08
2023-03-16T07:28:18.890Z,1012.07
2023-03-16T07:29:18.911Z,1012.10
2023-03-16T07:30:18.936Z,1012.05
2023-03-16T07:31:18.999Z,1012.09
2023-03-16T07:32:19.004Z,1012.09
2023-03-16T07:33:19.001Z,1012.12
2023-03-16T07:34:19.029Z,1012.12
2023-03-16T07:35:19.057Z,1012.08
2023-03-16T07:36:19.118Z,1012.11
2023-03-16T07:37:25.064Z,1012.10
2023-03-16T07:38:19.120Z,1012.02
2023-03-16T07:39:19.139Z,1012.07
2023-03-16T07:40:19.166Z,1012.11
2023-03-16T07:41:19.182Z,1012.07
2023-03-16T07:42:19.228Z,1012.03
2023-03-16T07:43:19.235Z,1012.06
2023-03-16T07:44:19.255Z,1012.06
2023-03-16T07:45:19.278Z,1012.02
2023-03-16T07:46:19.354Z,1012.11
2023-03-16T07:47:19.340Z,1012.03
2023-03-16T07:48:19.371Z,1012.01
2023-03-16T07:49:19.366Z,1012.02
2023-03-16T07:50:19.389Z,1011.97
2023-03-16T07:51:19.426Z,1012.03
2023-03-16T07:52:19.441Z,1012.04
2023-03-16T07:53:19.481Z,1012.09
2023-03-16T07:54:19.485Z,1012.11
2023-03-16T07:55:19.509Z,1012.04
2023-03-16T07:56:19.531Z,1012.04
2023-03-16T07:57:19.552Z,1012.09
2023-03-16T07:58:19.578Z,1012.08
2023-03-16T07:59:20.981Z,1012.02
2023-03-16T08:00:19.638Z,1012.01
2023-03-16T08:01:19.656Z,1012.04
2023-03-16T08:02:19.771Z,1012.02
2023-03-16T08:03:19.752Z,1012.04
2023-03-16T08:04:19.750Z,1012.00
2023-03-16T08:05:19.752Z,1011.99
2023-03-16T08:06:19.761Z,1011.99
2023-03-16T08:07:19.792Z,1011.95
2023-03-16T08:08:19.811Z,1011.95
2023-03-16T08:09:19.832Z,1011.89
2023-03-16T08:10:19.860Z,1011.91
2023-03-16T08:11:19.882Z,1011.86
2023-03-16T08:12:19.908Z,1011.88
2023-03-16T08:13:19.936Z,1011.89
2023-03-16T08:14:19.956Z,1011.88
2023-03-16T08:15:19.978Z,1011.88
2023-03-16T08:16:22.019Z,1011.90
2023-03-16T08:17:20.026Z,1011.88
2023-03-16T08:18:20.049Z,1011.93
2023-03-16T08:19:20.070Z,1011.88
2023-03-16T08:20:20.121Z,1011.90
2023-03-16T08:21:20.124Z,1011.89
2023-03-16T08:22:20.148Z,1011.89
2023-03-16T08:23:20.195Z,1011.94
2023-03-16T08:24:20.193Z,1011.95
2023-03-16T08:25:20.212Z,1011.99
2023-03-16T08:26:20.257Z,1011.99
2023-03-16T08:27:20.266Z,1011.96
2023-03-16T08:28:20.290Z,1011.95
2023-03-16T08:29:20.314Z,1012.01
2023-03-16T08:30:20.335Z,1012.00
2023-03-16T08:31:20.425Z,1011.96
2023-03-16T08:32:20.394Z,1011.92
2023-03-16T08:33:23.039Z,1011.94
2023-03-16T08:34:20.434Z,1011.94
2023-03-16T08:35:20.461Z,1011.95
2023-03-16T08:36:20.517Z,1011.98
2023-03-16T08:37:20.508Z,1012.01
2023-03-16T08:38:20.539Z,1011.94
2023-03-16T08:39:20.586Z,1011.92
2023-03-16T08:40:20.578Z,1011.94
2023-03-16T08:41:20.606Z,1011.95
2023-03-16T08:42:20.626Z,1011.96
2023-03-16T08:43:20.659Z,1011.97
2023-03-16T08:44:20.680Z,1011.89
2023-03-16T08:45:20.705Z,1011.83
2023-03-16T08:46:20.754Z,1011.79
2023-03-16T08:47:20.749Z,1011.80
2023-03-16T08:48:20.776Z,1011.85
2023-03-16T08:49:20.812Z,1011.79
2023-03-16T08:50:20.849Z,1011.81
2023-03-16T08:51:20.847Z,1011.78
2023-03-16T08:52:20.939Z,1011.71
2023-03-16T08:53:20.897Z,1011.76
2023-03-16T08:54:20.920Z,1011.74
2023-03-16T08:55:20.965Z,1011.72
2023-03-16T08:56:20.980Z,1011.73
2023-03-16T08:57:20.994Z,1011.80
2023-03-16T08:58:21.022Z,1011.83
2023-03-16T08:59:29.837Z,1011.81
2023-03-16T09:00:21.070Z,1011.77
2023-03-16T09:01:21.092Z,1011.75
2023-03-16T09:02:21.126Z,1011.70
2023-03-16T09:03:21.141Z,1011.74
2023-03-16T09:04:21.210Z,1011.72
2023-03-16T09:05:21.192Z,1011.71
2023-03-16T09:06:21.216Z,1011.75
2023-03-16T09:07:21.242Z,1011.79
2023-03-16T09:08:24.295Z,1011.72
2023-03-16T09:09:21.291Z,1011.81
2023-03-16T09:10:21.314Z,1011.75
2023-03-16T09:11:21.340Z,1011.70
2023-03-16T09:12:21.363Z,1011.70
2023-03-16T09:13:21.391Z,1011.69
2023-03-16T09:14:21.414Z,1011.69
2023-03-16T09:15:21.451Z,1011.71
2023-03-16T09:16:21.559Z,1011.72
2023-03-16T09:17:21.492Z,1011.72
2023-03-16T09:18:21.514Z,1011.73
2023-03-16T09:19:21.538Z,1011.67
2023-03-16T09:20:25.969Z,1011.66
2023-03-16T09:21:21.597Z,1011.64
2023-03-16T09:22:21.755Z,1011.63
2023-03-16T09:23:21.639Z,1011.67
2023-03-16T09:24:21.680Z,1011.69
2023-03-16T09:25:21.693Z,1011.70
2023-03-16T09:26:21.725Z,1011.66
2023-03-16T09:27:21.786Z,1011.69
2023-03-16T09:28:22.280Z,1011.70
2023-03-16T09:29:21.800Z,1011.69
2023-03-16T09:30:21.830Z,1011.71
2023-03-16T09:31:21.914Z,1011.65
2023-03-16T09:32:21.861Z,1011.67
2023-03-16T09:33:21.890Z,1011.68
2023-03-16T09:34:21.914Z,1011.66
2023-03-16T09:35:21.938Z,1011.64
2023-03-16T09:36:21.963Z,1011.67
2023-03-16T09:37:21.989Z,1011.63
2023-03-16T09:38:22.016Z,1011.64
2023-03-16T09:39:22.060Z,1011.56
2023-03-16T09:40:22.141Z,1011.46
2023-03-16T09:41:22.093Z,1011.56
2023-03-16T09:42:22.318Z,1011.53
2023-03-16T09:43:22.144Z,1011.48
2023-03-16T09:44:22.167Z,1011.47
2023-03-16T09:45:22.196Z,1011.52
2023-03-16T09:46:22.264Z,1011.50
2023-03-16T09:47:22.249Z,1011.49
2023-03-16T09:48:22.291Z,1011.49
2023-03-16T09:49:22.297Z,1011.51
2023-03-16T09:50:22.406Z,1011.45
2023-03-16T09:51:22.427Z,1011.48
2023-03-16T09:52:22.376Z,1011.42
2023-03-16T09:53:22.422Z,1011.41
2023-03-16T09:54:22.425Z,1011.36
2023-03-16T09:55:22.454Z,1011.35
2023-03-16T09:56:22.499Z,1011.32
2023-03-16T09:57:22.502Z,1011.25
2023-03-16T09:58:22.532Z,1011.23
2023-03-16T09:59:22.566Z,1011.25
2023-03-16T10:00:22.590Z,1011.23
2023-03-16T10:01:22.648Z,1011.27
2023-03-16T10:02:22.636Z,1011.28
2023-03-16T10:03:22.672Z,1011.24
2023-03-16T10:04:22.783Z,1011.23
2023-03-16T10:05:22.710Z,1011.21
2023-03-16T10:06:22.734Z,1011.18
2023-03-16T10:07:22.795Z,1011.18
2023-03-16T10:08:22.796Z,1011.18
2023-03-16T10:09:22.834Z,1011.23
2023-03-16T10:10:22.874Z,1011.21
2023-03-16T10:11:22.865Z,1011.23
2023-03-16T10:12:22.907Z,1011.19
2023-03-16T10:13:22.915Z,1011.18
2023-03-16T10:14:23.142Z,1011.19
2023-03-16T10:15:22.971Z,1011.16
2023-03-16T10:16:23.041Z,1011.17
2023-03-16T10:17:23.017Z,1011.16
2023-03-16T10:18:23.049Z,1011.15
2023-03-16T10:19:23.074Z,1011.18
2023-03-16T10:20:23.182Z,1011.19
2023-03-16T10:21:23.120Z,1011.14
2023-03-16T10:22:23.148Z,1011.17
2023-03-16T10:23:23.171Z,1011.15
2023-03-16T10:24:23.221Z,1011.13
2023-03-16T10:25:23.220Z,1011.14
2023-03-16T10:26:23.245Z,1011.17
2023-03-16T10:27:23.271Z,1011.20
2023-03-16T10:28:23.342Z,1011.18
2023-03-16T10:29:23.527Z,1011.21
2023-03-16T10:30:23.347Z,1011.26
2023-03-16T10:31:23.467Z,1011.25
2023-03-16T10:32:23.554Z,1011.27
2023-03-16T10:33:23.427Z,1011.24
2023-03-16T10:34:23.457Z,1011.17
2023-03-16T10:35:23.477Z,1011.14
2023-03-16T10:36:23.559Z,1011.02
2023-03-16T10:37:23.534Z,1011.01
2023-03-16T10:38:23.552Z,1011.03
2023-03-16T10:39:23.589Z,1011.00
2023-03-16T10:40:23.606Z,1011.00
2023-03-16T10:41:23.631Z,1011.03
2023-03-16T10:42:23.657Z,1011.02
2023-03-16T10:43:23.684Z,1011.06
2023-03-16T10:44:23.736Z,1011.10
2023-03-16T10:45:23.735Z,1011.00
2023-03-16T10:46:23.947Z,1011.09
2023-03-16T10:47:23.964Z,1011.09
2023-03-16T10:48:23.812Z,1011.09
2023-03-16T10:49:23.841Z,1011.16
2023-03-16T10:50:23.865Z,1011.06
2023-03-16T10:51:23.893Z,1011.06
2023-03-16T10:52:23.929Z,1011.06
2023-03-16T10:53:23.944Z,1011.01
2023-03-16T10:54:23.969Z,1011.01
2023-03-16T10:55:24.002Z,1010.96
2023-03-16T10:56:24.020Z,1010.89
2023-03-16T10:57:24.050Z,1010.95
2023-03-16T10:58:24.073Z,1010.87
2023-03-16T10:59:24.150Z,1010.89
2023-03-16T11:00:24.142Z,1010.88
2023-03-16T11:01:24.254Z,1010.90
2023-03-16T11:02:24.176Z,1010.94
2023-03-16T11:03:24.208Z,1010.84
2023-03-16T11:04:24.258Z,1010.80
2023-03-16T11:05:24.257Z,1010.81
2023-03-16T11:06:24.283Z,1010.80
2023-03-16T11:07:24.326Z,1010.69
2023-03-16T11:08:24.349Z,1010.70
2023-03-16T11:09:24.361Z,1010.69
2023-03-16T11:10:24.386Z,1010.69
2023-03-16T11:11:24.412Z,1010.65
2023-03-16T11:12:24.438Z,1010.71
2023-03-16T11:13:24.466Z,1010.57
2023-03-16T11:14:24.492Z,1010.60
2023-03-16T11:15:26.180Z,1010.53
2023-03-16T11:16:24.609Z,1010.51
2023-03-16T11:17:24.577Z,1010.53
2023-03-16T11:18:24.600Z,1010.51
2023-03-16T11:19:24.624Z,1010.47
2023-03-16T11:20:24.661Z,1010.53
2023-03-16T11:21:24.678Z,1010.47
2023-03-16T11:22:24.704Z,1010.48
2023-03-16T11:23:24.733Z,1010.49
2023-03-16T11:24:24.757Z,1010.48
2023-03-16T11:25:24.783Z,1010.46
2023-03-16T11:26:24.810Z,1010.52
2023-03-16T11:27:24.835Z,1010.49
2023-03-16T11:28:24.864Z,1010.54
2023-03-16T11:29:24.891Z,1010.48
2023-03-16T11:30:24.915Z,1010.59
2023-03-16T11:31:24.993Z,1010.63
2023-03-16T11:32:25.059Z,1010.43
2023-03-16T11:33:24.999Z,1010.43
2023-03-16T11:34:25.077Z,1010.47
2023-03-16T11:35:25.054Z,1010.49
2023-03-16T11:36:25.107Z,1010.38
2023-03-16T11:37:25.104Z,1010.36
2023-03-16T11:38:25.127Z,1010.30
2023-03-16T11:39:25.156Z,1010.24
2023-03-16T11:40:25.181Z,1010.33
2023-03-16T11:41:25.209Z,1010.23
2023-03-16T11:42:25.241Z,1010.30
2023-03-16T11:43:25.263Z,1010.26
2023-03-16T11:44:25.288Z,1010.31
2023-03-16T11:45:25.314Z,1010.11
2023-03-16T11:46:25.450Z,1010.14
2023-03-16T11:47:25.367Z,1010.16
2023-03-16T11:48:25.416Z,1010.04
2023-03-16T11:49:25.420Z,1010.10
2023-03-16T11:50:25.445Z,1010.12
2023-03-16T11:51:25.472Z,1010.11
2023-03-16T11:52:25.503Z,1010.10
2023-03-16T11:53:25.524Z,1010.12
2023-03-16T11:54:25.569Z,1010.11
2023-03-16T11:55:25.589Z,1010.01
2023-03-16T11:56:25.602Z,1009.98
2023-03-16T11:57:25.648Z,1010.03
2023-03-16T11:58:25.652Z,1010.00
2023-03-16T11:59:25.677Z,1010.04
2023-03-16T12:00:25.702Z,1010.05
2023-03-16T12:01:25.794Z,1010.02
2023-03-16T12:02:25.905Z,1010.03
2023-03-16T12:03:25.964Z,1010.06
2023-03-16T12:04:25.903Z,1009.88
2023-03-16T12:05:25.835Z,1009.93